Time;durP1;ratioP1;P1;durP2;ratioP2;P2;SDS_P1;SDS_P2;PMS_P1;PMS_P2;Temp;Humidity;BMP_temperature;BMP_pressure;BME280_temperature;BME280_humidity;BME280_pressure;Samples;Min_cycle;Max_cycle;Signal;HPM_P1;HPM_P2
2023/05/06 00:00:58;;;;;;;;;3.00;3.00;;;;;19.99;98.90;101206.13;5101488;27;45335;-75
2023/05/06 00:03:23;;;;;;;;;3.00;3.00;;;;;19.97;98.97;101204.72;5100391;27;45282;-74
2023/05/06 00:05:49;;;;;;;;;4.67;4.67;;;;;19.90;99.53;101194.81;5101404;27;45235;-75
2023/05/06 00:08:14;;;;;;;;;3.00;1.67;;;;;19.83;100.00;101196.78;5101533;27;46070;-74
2023/05/06 00:10:40;;;;;;;;;0.00;0.00;;;;;19.83;100.00;101201.34;5101334;27;45222;-74
2023/05/06 00:13:06;;;;;;;;;2.67;2.67;;;;;19.84;100.00;101200.31;5101628;27;45378;-75
2023/05/06 00:15:32;;;;;;;;;4.00;2.00;;;;;19.85;100.00;101207.34;5101470;27;45262;-75
2023/05/06 00:17:59;;;;;;;;;4.00;4.00;;;;;19.86;100.00;101208.97;5101132;27;46104;-75
2023/05/06 00:20:25;;;;;;;;;6.00;5.00;;;;;19.80;100.00;101199.91;5082642;27;45472;-75
2023/05/06 00:22:50;;;;;;;;;4.33;4.33;;;;;19.83;100.00;101202.16;5082932;27;45439;-75
2023/05/06 00:25:15;;;;;;;;;3.67;3.67;;;;;19.82;100.00;101216.72;5101023;27;45510;-74
2023/05/06 00:27:41;;;;;;;;;6.00;6.00;;;;;19.79;100.00;101209.88;5101203;27;45369;-74
2023/05/06 00:30:07;;;;;;;;;5.00;5.00;;;;;19.67;100.00;101200.91;5100437;27;53705;-74
2023/05/06 00:32:32;;;;;;;;;4.67;4.00;;;;;19.67;100.00;101203.59;5082816;27;45450;-75
2023/05/06 00:34:57;;;;;;;;;5.00;5.00;;;;;19.64;100.00;101196.75;5082502;27;48707;-75
2023/05/06 00:37:22;;;;;;;;;4.67;4.67;;;;;19.61;100.00;101191.84;5100968;27;46096;-75
2023/05/06 00:39:48;;;;;;;;;5.67;5.67;;;;;19.62;100.00;101198.88;5100758;27;45333;-74
2023/05/06 00:42:13;;;;;;;;;6.33;5.00;;;;;19.61;100.00;101201.78;5100818;27;45278;-75
2023/05/06 00:44:38;;;;;;;;;3.67;3.67;;;;;19.53;100.00;101186.72;5100973;27;45448;-75
2023/05/06 00:47:04;;;;;;;;;5.00;5.00;;;;;19.55;100.00;101192.75;5082116;27;54894;-75
2023/05/06 00:49:30;;;;;;;;;6.67;6.67;;;;;19.57;100.00;101200.59;5082341;27;45777;-74
2023/05/06 00:51:56;;;;;;;;;4.67;4.00;;;;;19.51;100.00;101200.44;5100095;27;45485;-74
2023/05/06 00:54:23;;;;;;;;;5.67;5.67;;;;;19.45;100.00;101189.72;5099644;27;45248;-74
2023/05/06 00:56:48;;;;;;;;;3.00;3.00;;;;;19.48;100.00;101197.38;5099467;27;45558;-75
2023/05/06 00:59:14;;;;;;;;;5.33;3.67;;;;;19.35;100.00;101174.06;5100358;27;48531;-74
2023/05/06 01:01:40;;;;;;;;;5.33;3.00;;;;;19.35;100.00;101182.13;5100738;27;45400;-74
2023/05/06 01:04:06;;;;;;;;;2.00;2.00;;;;;19.43;100.00;101189.97;5082203;27;45754;-74
2023/05/06 01:06:40;;;;;;;;;4.00;4.00;;;;;19.36;100.00;101181.91;5100469;27;45376;-74
2023/05/06 01:09:35;;;;;;;;;3.67;3.67;;;;;19.43;100.00;101187.25;5081953;27;45426;-74
2023/05/06 01:12:23;;;;;;;;;4.00;3.00;;;;;19.33;100.00;101170.78;5100509;27;45407;-74
2023/05/06 01:15:09;;;;;;;;;3.00;3.00;;;;;19.36;100.00;101186.50;5087456;27;45239;-75
2023/05/06 01:17:41;;;;;;;;;3.33;3.33;;;;;19.24;100.00;101175.63;5074821;27;47295;-75
2023/05/06 01:20:10;;;;;;;;;5.00;3.33;;;;;19.24;100.00;101178.34;5081748;27;45929;-75
2023/05/06 01:22:37;;;;;;;;;3.00;3.00;;;;;19.24;100.00;101181.03;5081946;27;45252;-74
2023/05/06 01:25:03;;;;;;;;;3.00;2.67;;;;;19.09;100.00;101159.81;5100081;27;45283;-74
2023/05/06 01:27:28;;;;;;;;;3.00;3.00;;;;;19.12;100.00;101168.25;5100154;27;47228;-74
2023/05/06 01:29:53;;;;;;;;;3.67;3.33;;;;;19.19;100.00;101181.69;5099704;27;57704;-75
2023/05/06 01:32:20;;;;;;;;;0.00;0.00;;;;;19.20;100.00;101177.94;5100454;27;45488;-74
2023/05/06 01:34:52;;;;;;;;;2.00;2.00;;;;;19.16;100.00;101172.16;5099851;27;45503;-76
2023/05/06 01:37:45;;;;;;;;;4.00;2.00;;;;;19.20;100.00;101175.25;5099987;27;46362;-74
2023/05/06 01:40:13;;;;;;;;;2.67;2.00;;;;;19.11;100.00;101163.94;5099648;27;45314;-75
2023/05/06 01:42:40;;;;;;;;;2.67;2.67;;;;;19.17;100.00;101181.06;5078348;28;45467;-74
2023/05/06 01:45:06;;;;;;;;;5.00;3.00;;;;;19.13;100.00;101174.47;5078998;27;47193;-74
2023/05/06 01:47:33;;;;;;;;;3.67;3.67;;;;;19.13;100.00;101161.81;5099997;27;46423;-74
2023/05/06 01:50:00;;;;;;;;;2.67;2.67;;;;;19.18;100.00;101161.16;5099984;27;45303;-75
2023/05/06 01:52:25;;;;;;;;;2.00;2.00;;;;;19.04;100.00;101152.38;5099977;27;45318;-75
2023/05/06 01:54:51;;;;;;;;;4.00;4.00;;;;;19.07;100.00;101151.09;5099971;27;45205;-74
2023/05/06 01:57:16;;;;;;;;;3.00;3.00;;;;;19.05;100.00;101151.31;5099762;27;45214;-74
2023/05/06 01:59:41;;;;;;;;;2.00;2.00;;;;;19.05;100.00;101152.16;5099986;27;45323;-75
2023/05/06 02:02:07;;;;;;;;;2.00;2.00;;;;;19.05;100.00;101165.63;5079237;27;45306;-74
2023/05/06 02:04:32;;;;;;;;;4.33;4.00;;;;;19.03;100.00;101156.91;5078018;28;47072;-75
2023/05/06 02:06:57;;;;;;;;;4.00;3.33;;;;;19.00;100.00;101153.81;5077652;28;56758;-75
2023/05/06 02:09:23;;;;;;;;;3.00;3.00;;;;;19.05;100.00;101157.53;5082942;27;56998;-75
2023/05/06 02:11:48;;;;;;;;;3.00;3.00;;;;;19.04;100.00;101152.38;5081457;28;45543;-74
2023/05/06 02:14:13;;;;;;;;;6.00;5.00;;;;;19.00;100.00;101143.06;5101801;27;46326;-75
2023/05/06 02:16:39;;;;;;;;;5.00;4.00;;;;;18.98;100.00;101143.31;5103264;27;45418;-75
2023/05/06 02:19:05;;;;;;;;;2.00;2.00;;;;;19.07;100.00;101151.09;5081998;27;45380;-74
2023/05/06 02:21:30;;;;;;;;;3.33;3.00;;;;;19.03;100.00;101148.84;5103153;27;45598;-75
2023/05/06 02:23:56;;;;;;;;;3.33;3.33;;;;;19.09;100.00;101149.03;5081177;28;46834;-75
2023/05/06 02:26:21;;;;;;;;;6.00;4.00;;;;;19.13;100.00;101158.31;5102450;27;45804;-75
2023/05/06 02:28:47;;;;;;;;;5.00;5.00;;;;;19.09;100.00;101147.16;5103032;27;45392;-74
2023/05/06 02:31:15;;;;;;;;;3.00;3.00;;;;;19.19;100.00;101154.75;5103317;27;45317;-74
2023/05/06 02:33:41;;;;;;;;;4.00;4.00;;;;;19.22;100.00;101157.00;5084436;27;46130;-74
2023/05/06 02:36:06;;;;;;;;;4.33;2.67;;;;;19.20;100.00;101156.38;5102820;27;46249;-74
2023/05/06 02:38:32;;;;;;;;;1.33;1.33;;;;;19.09;100.00;101136.38;5084117;27;45240;-74
2023/05/06 02:40:57;;;;;;;;;5.00;4.00;;;;;19.22;100.00;101158.84;5101726;27;45463;-74
2023/05/06 02:43:22;;;;;;;;;3.33;3.33;;;;;19.20;100.00;101152.84;5101897;27;45235;-75
2023/05/06 02:45:48;;;;;;;;;3.00;3.00;;;;;19.27;100.00;101164.38;5101730;27;46589;-75
2023/05/06 02:48:13;;;;;;;;;3.33;2.33;;;;;19.27;100.00;101162.53;5083021;27;55918;-74
2023/05/06 02:50:38;;;;;;;;;2.00;2.00;;;;;19.31;100.00;101168.31;5083208;27;45280;-76
2023/05/06 02:53:04;;;;;;;;;4.00;4.00;;;;;19.20;100.00;101142.91;5101307;27;51639;-74
2023/05/06 02:55:32;;;;;;;;;4.33;4.00;;;;;19.27;100.00;101154.44;5101131;27;45395;-76
2023/05/06 02:57:57;;;;;;;;;4.00;4.00;;;;;19.27;100.00;101157.13;5101573;27;45284;-76
2023/05/06 03:00:22;;;;;;;;;4.67;4.67;;;;;19.29;100.00;101159.59;5082387;27;54340;-77
2023/05/06 03:02:48;;;;;;;;;4.67;4.67;;;;;19.25;100.00;101151.13;5083034;27;46023;-77
2023/05/06 03:05:13;;;;;;;;;4.00;4.00;;;;;19.21;100.00;101146.44;5082392;27;56569;-76
2023/05/06 03:07:38;;;;;;;;;3.33;3.33;;;;;19.25;100.00;101148.44;5101488;27;45257;-77
2023/05/06 03:10:04;;;;;;;;;3.33;3.00;;;;;19.28;100.00;101150.69;5101321;27;45653;-77
2023/05/06 03:12:30;;;;;;;;;6.00;6.00;;;;;19.23;100.00;101141.63;5101135;27;45224;-77
2023/05/06 03:14:55;;;;;;;;;2.67;2.67;;;;;19.25;100.00;101143.06;5100787;27;55401;-77
2023/05/06 03:17:20;;;;;;;;;6.00;6.00;;;;;19.27;100.00;101145.53;5082556;27;57590;-76
2023/05/06 03:19:48;;;;;;;;;6.00;4.00;;;;;19.25;100.00;101139.56;5082604;27;45313;-76
2023/05/06 03:22:13;;;;;;;;;3.00;3.00;;;;;19.25;100.00;101137.66;5101062;27;45544;-77
2023/05/06 03:24:38;;;;;;;;;4.33;4.33;;;;;19.27;100.00;101137.44;5100969;27;45431;-77
2023/05/06 03:27:04;;;;;;;;;4.00;4.00;;;;;19.33;100.00;101141.13;5082410;27;45392;-77
2023/05/06 03:29:32;;;;;;;;;5.00;3.33;;;;;19.28;100.00;101131.84;5082047;27;52143;-77
2023/05/06 03:32:02;;;;;;;;;5.00;5.00;;;;;19.27;100.00;101127.50;5100872;27;45514;-77
2023/05/06 03:34:27;;;;;;;;;5.67;4.67;;;;;19.36;100.00;101141.50;5074104;27;47607;-77
2023/05/06 03:36:53;;;;;;;;;5.67;5.67;;;;;19.33;100.00;101136.56;5100622;27;45260;-77
2023/05/06 03:39:18;;;;;;;;;7.00;7.00;;;;;19.31;100.00;101135.97;5057107;27;1241899;-77
2023/05/06 03:41:43;;;;;;;;;9.00;8.00;;;;;19.26;100.00;101131.25;5101649;27;45212;-77
2023/05/06 03:44:08;;;;;;;;;5.67;5.67;;;;;19.28;100.00;101129.13;5083439;27;47983;-76
2023/05/06 03:46:34;;;;;;;;;6.33;5.00;;;;;19.25;100.00;101129.59;5101904;27;45342;-77
2023/05/06 03:49:01;;;;;;;;;6.33;6.33;;;;;19.23;100.00;101126.31;5102036;27;45329;-76
2023/05/06 03:51:27;;;;;;;;;6.67;6.67;;;;;19.24;100.00;101130.63;5101545;27;45312;-78
2023/05/06 03:53:52;;;;;;;;;4.00;4.00;;;;;19.22;100.00;101121.13;5101636;27;46425;-76
2023/05/06 03:56:20;;;;;;;;;6.00;6.00;;;;;19.23;100.00;101126.31;5101478;27;45308;-76
2023/05/06 03:58:46;;;;;;;;;5.00;5.00;;;;;19.10;100.00;101139.91;5083445;27;45267;-77
2023/05/06 04:01:11;;;;;;;;;5.33;5.00;;;;;19.37;100.00;101128.88;5101567;27;45199;-77
2023/05/06 04:03:36;;;;;;;;;7.00;7.00;;;;;19.46;100.00;101127.53;5082916;27;53372;-77
2023/05/06 04:06:01;;;;;;;;;6.33;6.00;;;;;19.58;100.00;101142.94;5101313;27;49443;-77
2023/05/06 04:08:27;;;;;;;;;6.33;6.33;;;;;19.54;100.00;101140.69;5101614;27;45111;-77
2023/05/06 04:10:54;;;;;;;;;5.33;5.33;;;;;19.53;100.00;101136.34;5082917;27;46868;-77
2023/05/06 04:13:19;;;;;;;;;7.00;7.00;;;;;19.45;100.00;101147.41;5101447;27;46097;-76
2023/05/06 04:15:44;;;;;;;;;5.00;5.00;;;;;19.32;100.00;101131.38;5101228;27;45381;-77
2023/05/06 04:18:10;;;;;;;;;5.33;5.33;;;;;19.54;100.00;101139.84;5101392;27;45416;-77
2023/05/06 04:20:35;;;;;;;;;3.33;3.33;;;;;19.57;100.00;101142.09;5101094;27;45331;-77
2023/05/06 04:23:01;;;;;;;;;5.67;5.67;;;;;19.53;100.00;101133.66;5101121;27;50951;-77
2023/05/06 04:25:27;;;;;;;;;5.67;5.67;;;;;19.58;100.00;101137.53;5101037;27;45398;-76
2023/05/06 04:27:52;;;;;;;;;6.00;6.00;;;;;19.58;100.00;101132.97;5082736;27;45362;-76
2023/05/06 04:30:19;;;;;;;;;5.33;5.33;;;;;19.44;100.00;101116.13;5081784;27;46394;-77
2023/05/06 04:32:45;;;;;;;;;5.67;5.67;;;;;19.43;100.00;101119.88;5100366;27;45247;-77
2023/05/06 04:35:10;;;;;;;;;8.67;7.33;;;;;19.60;100.00;101132.75;5080612;27;45335;-77
2023/05/06 04:37:35;;;;;;;;;5.00;5.00;;;;;19.29;100.00;101097.63;5101274;27;45237;-77
2023/05/06 04:40:01;;;;;;;;;7.00;6.00;;;;;19.39;100.00;101102.50;5078671;27;52565;-77
2023/05/06 04:42:26;;;;;;;;;7.00;6.00;;;;;19.51;100.00;101116.88;5100997;27;45277;-77
2023/05/06 04:44:52;;;;;;;;;6.67;6.00;;;;;19.61;100.00;101132.53;5100519;27;53417;-76
2023/05/06 04:47:17;;;;;;;;;6.67;6.67;;;;;19.57;100.00;101119.72;5081721;27;45358;-76
2023/05/06 04:49:42;;;;;;;;;5.67;5.67;;;;;19.61;100.00;101121.75;5079179;28;47282;-76
2023/05/06 04:52:08;;;;;;;;;6.33;6.33;;;;;19.61;100.00;101129.84;5098291;27;45314;-76
2023/05/06 04:54:33;;;;;;;;;6.67;5.67;;;;;19.60;100.00;101130.88;5100804;27;45389;-77
2023/05/06 04:56:58;;;;;;;;;8.00;7.33;;;;;19.45;100.00;101141.22;5078453;28;54522;-76
2023/05/06 04:59:24;;;;;;;;;6.00;6.00;;;;;19.43;100.00;101133.34;5100214;27;47731;-77
2023/05/06 05:01:49;;;;;;;;;6.00;6.00;;;;;19.39;100.00;101119.50;5100216;27;45405;-77
2023/05/06 05:04:15;;;;;;;;;6.33;6.33;;;;;19.54;100.00;101135.28;5099625;27;45345;-77
2023/05/06 05:06:41;;;;;;;;;5.00;5.00;;;;;19.60;100.00;101140.84;5078232;28;45441;-77
2023/05/06 05:09:06;;;;;;;;;6.33;6.33;;;;;19.86;100.00;101141.56;5097928;27;45280;-77
2023/05/06 05:11:31;;;;;;;;;6.00;6.00;;;;;19.92;100.00;101133.41;5099960;27;55791;-77
2023/05/06 05:13:57;;;;;;;;;10.00;9.00;;;;;19.98;100.00;101128.94;5100544;27;45245;-77
2023/05/06 05:16:22;;;;;;;;;8.00;8.00;;;;;20.12;100.00;101132.34;5093037;27;48229;-77
2023/05/06 05:18:47;;;;;;;;;8.33;8.00;;;;;19.87;100.00;101129.75;5100383;27;45345;-77
2023/05/06 05:21:13;;;;;;;;;8.00;8.00;;;;;19.93;100.00;101139.59;5097932;27;45285;-76
2023/05/06 05:23:38;;;;;;;;;9.00;9.00;;;;;19.91;100.00;101129.03;5101326;27;45310;-77
2023/05/06 05:26:03;;;;;;;;;8.33;8.00;;;;;19.89;100.00;101127.63;5098569;27;45286;-76
2023/05/06 05:28:29;;;;;;;;;8.33;8.33;;;;;19.98;100.00;101131.66;5082666;27;45908;-77
2023/05/06 05:30:54;;;;;;;;;9.33;8.33;;;;;20.03;100.00;101137.19;5101558;27;45288;-78
2023/05/06 05:33:19;;;;;;;;;8.00;8.00;;;;;20.04;100.00;101138.88;5101429;27;45309;-77
2023/05/06 05:35:45;;;;;;;;;8.00;8.00;;;;;20.10;100.00;101142.53;5085701;27;53367;-76
2023/05/06 05:38:12;;;;;;;;;7.00;7.00;;;;;20.38;100.00;101137.56;5109507;27;44747;-75
2023/05/06 05:40:38;;;;;;;;;6.33;6.33;;;;;20.59;100.00;101155.09;5084192;27;47133;-77
2023/05/06 05:43:03;;;;;;;;;11.00;9.00;;;;;20.63;100.00;101147.38;5081619;27;47597;-77
2023/05/06 05:45:28;;;;;;;;;11.00;9.33;;;;;20.52;100.00;101168.72;5085398;27;45365;-78
2023/05/06 05:47:54;;;;;;;;;8.67;7.33;;;;;20.39;100.00;101168.91;5085487;27;46222;-77
2023/05/06 05:50:20;;;;;;;;;8.00;8.00;;;;;20.65;100.00;101173.06;5085004;27;47186;-78
2023/05/06 05:52:45;;;;;;;;;8.67;8.33;;;;;20.36;100.00;101139.69;5103668;27;45345;-79
2023/05/06 05:55:12;;;;;;;;;9.00;9.00;;;;;20.75;100.00;101164.41;5103304;27;45363;-78
2023/05/06 05:57:37;;;;;;;;;8.33;8.33;;;;;20.85;100.00;101160.28;5103613;27;45575;-78
2023/05/06 06:00:04;;;;;;;;;9.00;7.67;;;;;20.94;100.00;101157.06;5103316;27;45364;-78
2023/05/06 06:02:30;;;;;;;;;9.00;9.00;;;;;21.00;100.00;101162.56;5085165;27;45186;-78
2023/05/06 06:04:55;;;;;;;;;8.33;7.33;;;;;20.73;100.00;101163.81;5103527;27;45280;-79
2023/05/06 06:07:20;;;;;;;;;7.00;7.00;;;;;20.87;100.00;101158.19;5084904;27;46136;-78
2023/05/06 06:09:47;;;;;;;;;5.50;5.50;;;;;20.73;100.00;101155.72;5084689;27;48554;-79
2023/05/06 06:12:13;;;;;;;;;8.00;8.00;;;;;20.77;100.00;101156.88;5103024;27;45330;-78
2023/05/06 06:14:38;;;;;;;;;7.00;7.00;;;;;20.83;100.00;101160.53;5084605;27;45340;-77
2023/05/06 06:17:04;;;;;;;;;6.33;6.33;;;;;20.95;100.00;101171.38;5091909;27;45522;-77
2023/05/06 06:19:32;;;;;;;;;4.00;4.00;;;;;20.99;100.00;101161.78;5064108;28;47371;-75
2023/05/06 06:21:57;;;;;;;;;5.00;5.00;;;;;21.04;100.00;101163.78;5064208;28;45349;-76
2023/05/06 06:24:23;;;;;;;;;7.33;7.00;;;;;21.15;100.00;101170.22;5082876;28;45438;-76
2023/05/06 06:26:48;;;;;;;;;6.00;6.00;;;;;21.27;100.00;101168.34;5082431;28;45337;-77
2023/05/06 06:29:14;;;;;;;;;8.67;7.33;;;;;21.61;100.00;101166.88;5090528;27;45322;-77
2023/05/06 06:31:39;;;;;;;;;5.67;5.67;;;;;21.80;100.00;101175.69;5102330;27;45431;-77
2023/05/06 06:34:05;;;;;;;;;7.00;7.00;;;;;21.86;100.00;101174.72;5102255;27;45364;-76
2023/05/06 06:36:31;;;;;;;;;9.00;7.67;;;;;21.87;100.00;101172.84;5102391;27;46251;-76
2023/05/06 06:38:56;;;;;;;;;6.67;5.67;;;;;21.62;100.00;101120.69;5102614;27;45337;-76
2023/05/06 06:41:21;;;;;;;;;6.33;6.33;;;;;21.94;100.00;101160.81;5084048;27;45297;-77
2023/05/06 06:43:47;;;;;;;;;9.00;7.00;;;;;21.69;100.00;101180.03;5102956;27;45313;-76
2023/05/06 06:46:12;;;;;;;;;10.67;9.00;;;;;21.67;100.00;101176.75;5101911;27;45385;-77
2023/05/06 06:48:38;;;;;;;;;6.67;6.67;;;;;21.63;100.00;101171.00;5102425;27;45358;-77
2023/05/06 06:51:03;;;;;;;;;6.67;6.67;;;;;21.64;100.00;101180.75;5083907;27;46057;-76
2023/05/06 06:53:28;;;;;;;;;5.00;5.00;;;;;21.54;100.00;101173.25;5084266;27;45264;-76
2023/05/06 06:55:54;;;;;;;;;8.00;6.67;;;;;21.63;100.00;101183.69;5083663;27;47648;-77
2023/05/06 06:58:19;;;;;;;;;5.67;5.67;;;;;21.67;100.00;101174.06;5102616;27;46011;-76
2023/05/06 07:00:44;;;;;;;;;9.67;7.33;;;;;21.74;100.00;101168.50;5102335;27;45318;-76
2023/05/06 07:03:10;;;;;;;;;5.33;5.33;;;;;21.84;100.00;101181.47;5102354;27;45834;-76
2023/05/06 07:05:35;;;;;;;;;6.33;6.33;;;;;21.96;100.00;101173.31;5083804;27;46513;-76
2023/05/06 07:08:01;;;;;;;;;7.33;6.67;;;;;21.99;100.00;101167.38;5102019;27;57200;-77
2023/05/06 07:10:26;;;;;;;;;7.67;7.67;;;;;22.10;100.00;101165.69;5083486;27;52363;-77
2023/05/06 07:12:51;;;;;;;;;11.00;10.67;;;;;22.24;100.00;101174.34;5083920;27;45769;-77
2023/05/06 07:15:17;;;;;;;;;9.00;9.00;;;;;22.23;100.00;101173.53;5102153;27;45365;-77
2023/05/06 07:17:42;;;;;;;;;6.33;6.00;;;;;22.33;100.00;101184.53;5083462;27;47303;-78
2023/05/06 07:20:08;;;;;;;;;13.00;13.00;;;;;22.47;100.00;101183.44;5102123;27;45346;-77
2023/05/06 07:22:33;;;;;;;;;19.67;18.67;;;;;22.53;100.00;101185.13;5102281;27;45247;-77
2023/05/06 07:24:59;;;;;;;;;14.67;14.00;;;;;22.63;100.00;101192.66;5101863;27;45235;-76
2023/05/06 07:27:26;;;;;;;;;9.00;8.00;;;;;22.70;100.00;101193.31;5102146;27;45306;-76
2023/05/06 07:29:51;;;;;;;;;9.00;5.67;;;;;22.70;100.00;101179.78;5101978;27;45366;-76
2023/05/06 07:32:17;;;;;;;;;6.67;6.67;;;;;22.86;100.00;101199.81;5082849;27;45471;-76
2023/05/06 07:34:42;;;;;;;;;9.00;6.00;;;;;22.95;100.00;101192.09;5101738;27;45436;-77
2023/05/06 07:37:07;;;;;;;;;5.33;5.33;;;;;22.92;100.00;101179.03;5101682;27;46533;-78
2023/05/06 07:39:33;;;;;;;;;5.00;4.00;;;;;23.00;100.00;101181.34;5101899;27;45264;-77
2023/05/06 07:41:58;;;;;;;;;5.00;5.00;;;;;23.07;100.00;101192.81;5079901;28;45437;-76
2023/05/06 07:44:23;;;;;;;;;7.33;6.00;;;;;23.07;100.00;101181.16;5079803;28;51305;-76
2023/05/06 07:46:49;;;;;;;;;4.00;3.50;;;;;23.22;100.00;101204.97;5096875;27;45619;-76
2023/05/06 07:49:14;;;;;;;;;4.67;4.67;;;;;23.27;100.00;101196.91;5082130;27;46075;-77
2023/05/06 07:51:41;;;;;;;;;7.00;4.33;;;;;23.32;100.00;101188.84;5079764;28;45332;-77
2023/05/06 07:54:06;;;;;;;;;5.00;4.67;;;;;23.30;100.00;101177.44;5099138;27;45279;-77
2023/05/06 07:56:32;;;;;;;;;4.00;4.00;;;;;23.41;100.00;101175.69;5101317;27;49528;-77
2023/05/06 07:58:58;;;;;;;;;7.33;5.33;;;;;23.58;100.00;101193.81;5079766;28;46136;-77
2023/05/06 08:01:24;;;;;;;;;6.00;6.00;;;;;23.63;98.78;101198.50;5101441;27;45376;-77
2023/05/06 08:03:49;;;;;;;;;8.00;6.00;;;;;23.64;98.76;101195.53;5101483;27;45476;-78
2023/05/06 08:06:15;;;;;;;;;5.00;5.00;;;;;23.74;99.04;101199.44;5100367;27;45866;-77
2023/05/06 08:08:40;;;;;;;;;6.67;6.67;;;;;23.85;99.21;101205.84;5079560;28;45324;-76
2023/05/06 08:11:05;;;;;;;;;6.67;5.00;;;;;23.78;99.02;101195.97;5098769;27;45287;-77
2023/05/06 08:13:32;;;;;;;;;6.33;6.00;;;;;23.91;98.59;101211.06;5079207;28;54036;-76
2023/05/06 08:15:57;;;;;;;;;7.67;5.00;;;;;23.88;98.38;101200.69;5079469;28;47310;-77
2023/05/06 08:18:23;;;;;;;;;6.00;6.00;;;;;23.82;98.12;101202.53;5082654;27;45448;-77
2023/05/06 08:20:48;;;;;;;;;7.00;7.00;;;;;23.86;97.91;101199.31;5079376;28;45471;-76
2023/05/06 08:23:13;;;;;;;;;8.00;8.00;;;;;23.91;97.84;101199.41;5099778;27;45249;-76
2023/05/06 08:25:38;;;;;;;;;6.00;6.00;;;;;23.84;97.59;101188.72;5100841;27;45303;-76
2023/05/06 08:28:04;;;;;;;;;7.67;7.00;;;;;23.97;97.53;101211.94;5099139;27;45249;-76
2023/05/06 08:30:29;;;;;;;;;7.00;6.67;;;;;23.99;97.08;101200.81;5082357;27;45536;-76
2023/05/06 08:32:55;;;;;;;;;5.67;5.67;;;;;24.00;97.98;101200.56;5082349;27;46381;-76
2023/05/06 08:35:20;;;;;;;;;7.00;6.33;;;;;23.90;98.88;101165.16;5100660;27;45372;-77
2023/05/06 08:37:45;;;;;;;;;6.00;5.67;;;;;24.19;97.35;101206.50;5101026;27;45361;-76
2023/05/06 08:40:18;;;;;;;;;6.00;6.00;;;;;24.25;96.46;101206.56;5100267;27;45296;-76
2023/05/06 08:42:46;;;;;;;;;5.67;5.67;;;;;24.25;93.87;101195.72;5100960;27;45279;-76
2023/05/06 08:45:12;;;;;;;;;28.67;28.00;;;;;24.19;94.21;101184.78;5082116;27;47009;-76
2023/05/06 08:47:37;;;;;;;;;7.67;7.33;;;;;24.13;94.73;101195.81;5082191;27;46134;-77
2023/05/06 08:50:03;;;;;;;;;7.00;7.00;;;;;24.14;94.90;101202.91;5100876;27;45329;-76
2023/05/06 08:52:29;;;;;;;;;7.33;6.67;;;;;24.17;95.92;101196.97;5082125;27;47316;-76
2023/05/06 08:54:59;;;;;;;;;12.67;10.67;;;;;24.02;96.10;101184.03;5099900;27;46528;-76
2023/05/06 08:57:28;;;;;;;;;7.33;5.00;;;;;24.15;95.96;101210.00;5099866;27;45341;-76
2023/05/06 08:59:53;;;;;;;;;6.33;6.33;;;;;24.13;95.60;101203.97;5100843;27;45321;-76
2023/05/06 09:02:21;;;;;;;;;7.00;5.00;;;;;24.25;93.89;101206.56;5081817;27;46066;-76
2023/05/06 09:04:47;;;;;;;;;7.67;6.00;;;;;24.26;93.57;101187.31;5100450;27;45384;-75
2023/05/06 09:07:12;;;;;;;;;6.00;6.00;;;;;24.34;93.50;101192.25;5100359;27;45246;-76
2023/05/06 09:09:37;;;;;;;;;7.00;6.33;;;;;24.52;94.69;101201.13;5081272;27;45305;-76
2023/05/06 09:12:04;;;;;;;;;8.67;8.00;;;;;24.57;93.23;101187.59;5081950;27;48438;-76
2023/05/06 09:14:30;;;;;;;;;14.33;12.00;;;;;24.53;91.26;101172.88;5081478;27;47475;-76
2023/05/06 09:16:55;;;;;;;;;3.33;3.00;;;;;24.85;91.84;101187.53;5100361;27;45337;-77
2023/05/06 09:19:21;;;;;;;;;7.33;7.33;;;;;25.11;89.68;101184.22;5081963;27;45270;-76
2023/05/06 09:21:49;;;;;;;;;9.33;9.33;;;;;25.35;87.56;101200.97;5100317;27;45238;-75
2023/05/06 09:24:15;;;;;;;;;12.33;10.00;;;;;25.44;85.54;101190.41;5100192;27;45296;-75
2023/05/06 09:26:43;;;;;;;;;9.00;9.00;;;;;25.51;87.22;101203.75;5081610;27;45289;-76
2023/05/06 09:29:08;;;;;;;;;4.00;4.00;;;;;25.58;87.38;101194.25;5081847;27;45342;-76
2023/05/06 09:31:46;;;;;;;;;4.00;4.00;;;;;25.65;86.06;101190.50;5100191;27;45325;-75
2023/05/06 09:34:12;;;;;;;;;10.00;10.00;;;;;25.73;84.18;101191.91;5099840;27;45524;-76
2023/05/06 09:36:37;;;;;;;;;6.00;4.33;;;;;25.66;83.39;101176.66;5081525;27;45943;-76
2023/05/06 09:39:03;;;;;;;;;30.67;24.33;;;;;25.39;86.54;101201.22;5081525;27;45583;-75
2023/05/06 09:41:32;;;;;;;;;8.00;6.33;;;;;25.37;87.29;101187.06;5081537;27;46186;-75
2023/05/06 09:43:58;;;;;;;;;4.33;4.33;;;;;25.34;85.63;101172.94;5100022;27;45353;-76
2023/05/06 09:46:25;;;;;;;;;5.00;5.00;;;;;25.42;85.55;101182.50;5100167;27;45358;-75
2023/05/06 09:48:51;;;;;;;;;4.00;4.00;;;;;25.45;86.19;101187.41;5081792;27;45432;-76
2023/05/06 09:51:18;;;;;;;;;4.00;4.00;;;;;25.46;85.94;101172.72;5081374;27;46186;-75
2023/05/06 09:53:44;;;;;;;;;51.00;35.67;;;;;25.61;86.07;101186.69;5081419;27;48649;-75
2023/05/06 09:56:11;;;;;;;;;20.33;16.67;;;;;25.66;85.11;101178.53;5099763;27;45250;-75
2023/05/06 09:58:37;;;;;;;;;6.00;6.00;;;;;25.67;83.23;101182.88;5081658;27;45336;-75
2023/05/06 10:01:06;;;;;;;;;13.00;11.33;;;;;25.68;83.66;101173.66;5081235;27;47079;-75
2023/05/06 10:03:32;;;;;;;;;13.67;11.00;;;;;25.97;81.96;101168.56;5081306;27;47366;-75
2023/05/06 10:06:03;;;;;;;;;5.33;4.67;;;;;26.13;81.21;101173.22;5081165;27;45315;-75
2023/05/06 10:08:32;;;;;;;;;15.33;12.33;;;;;26.19;81.67;101158.53;5099916;27;45339;-76
2023/05/06 10:11:00;;;;;;;;;8.33;8.00;;;;;26.28;80.52;101156.91;5099567;27;45320;-75
2023/05/06 10:13:25;;;;;;;;;4.75;3.25;;;;;26.31;80.48;101153.66;5099648;27;45506;-76
2023/05/06 10:15:51;;;;;;;;;13.00;9.50;;;;;26.44;80.83;101163.22;5081166;27;45309;-75
2023/05/06 10:18:20;;;;;;;;;11.33;7.67;;;;;26.51;80.72;101153.97;5081474;27;45257;-76
2023/05/06 10:20:46;;;;;;;;;6.25;6.25;;;;;26.58;79.55;101152.56;5080896;27;45403;-76
2023/05/06 10:23:35;;;;;;;;;6.25;6.25;;;;;26.71;79.02;101155.84;5099336;27;46814;-78
2023/05/06 10:26:10;;;;;;;;;4.25;4.25;;;;;26.80;78.57;101165.13;5080853;27;45370;-75
2023/05/06 10:28:40;;;;;;;;;4.75;3.50;;;;;26.66;76.09;101132.13;5099545;27;45516;-76
2023/05/06 10:31:11;;;;;;;;;3.50;3.00;;;;;26.90;76.85;101161.53;5102524;27;45416;-76
2023/05/06 10:33:36;;;;;;;;;3.00;2.50;;;;;26.90;75.26;101164.28;5102695;27;46205;-76
2023/05/06 10:36:19;;;;;;;;;4.00;3.25;;;;;26.93;75.14;101155.53;5102610;27;51352;-76
2023/05/06 10:38:49;;;;;;;;;3.00;3.00;;;;;26.99;76.83;101161.03;5102975;27;45460;-75
2023/05/06 10:41:15;;;;;;;;;3.00;3.00;;;;;27.06;76.67;101156.09;5102746;27;45486;-77
2023/05/06 10:43:42;;;;;;;;;4.25;2.75;;;;;27.14;75.29;101158.25;5102711;27;45256;-76
2023/05/06 10:46:10;;;;;;;;;3.75;3.75;;;;;27.18;75.62;101151.13;5102773;27;45317;-75
2023/05/06 10:48:37;;;;;;;;;3.25;3.00;;;;;27.20;74.06;101142.69;5102966;27;45346;-75
2023/05/06 10:51:20;;;;;;;;;5.00;4.50;;;;;27.21;72.68;101136.16;5101559;27;45407;-75
2023/05/06 10:54:06;;;;;;;;;6.00;4.50;;;;;27.36;73.59;101146.19;5101103;27;45326;-76
2023/05/06 10:56:34;;;;;;;;;10.50;8.00;;;;;27.39;73.21;101142.09;5101489;27;45276;-76
2023/05/06 10:59:10;;;;;;;;;2.75;2.00;;;;;27.41;71.95;101146.16;5101707;27;45485;-76
2023/05/06 11:01:37;;;;;;;;;3.50;3.50;;;;;27.41;72.08;101140.69;5100826;27;45312;-76
2023/05/06 11:04:05;;;;;;;;;4.00;2.50;;;;;27.54;72.32;101135.75;5083586;27;48134;-76
2023/05/06 11:06:41;;;;;;;;;3.00;3.00;;;;;27.53;70.54;101143.09;5102458;27;45345;-75
2023/05/06 11:09:18;;;;;;;;;5.00;3.00;;;;;27.58;72.36;101136.81;5084045;27;45363;-75
2023/05/06 11:12:04;;;;;;;;;12.75;10.25;;;;;27.60;71.31;101132.69;5083649;27;46322;-76
2023/05/06 11:14:33;;;;;;;;;3.75;3.75;;;;;27.51;67.33;101112.56;5082604;27;47372;-76
2023/05/06 11:17:00;;;;;;;;;1.00;1.00;;;;;27.52;67.19;101118.81;5095677;27;45324;-75